sensor_id;sensor_type;location;lat;lon;timestamp;P1;durP1;ratioP1;P2;durP2;ratioP2
71106;SDS011;58763;47.982;11.516;2024-03-22T00:01:58;20.23;;;11.60;;
71106;SDS011;58763;47.982;11.516;2024-03-22T00:04:25;19.92;;;12.38;;
71106;SDS011;58763;47.982;11.516;2024-03-22T00:06:51;18.48;;;11.38;;
71106;SDS011;58763;47.982;11.516;2024-03-22T00:09:17;20.30;;;11.32;;
71106;SDS011;58763;47.982;11.516;2024-03-22T00:11:43;18.95;;;11.80;;
71106;SDS011;58763;47.982;11.516;2024-03-22T00:14:10;22.08;;;13.07;;
71106;SDS011;58763;47.982;11.516;2024-03-22T00:16:37;20.75;;;13.25;;
71106;SDS011;58763;47.982;11.516;2024-03-22T00:19:03;21.98;;;13.02;;
71106;SDS011;58763;47.982;11.516;2024-03-22T00:21:29;21.27;;;12.65;;
71106;SDS011;58763;47.982;11.516;2024-03-22T00:23:54;21.02;;;13.07;;
71106;SDS011;58763;47.982;11.516;2024-03-22T00:26:21;20.77;;;11.95;;
71106;SDS011;58763;47.982;11.516;2024-03-22T00:28:47;21.90;;;13.50;;
71106;SDS011;58763;47.982;11.516;2024-03-22T00:31:12;18.95;;;11.90;;
71106;SDS011;58763;47.982;11.516;2024-03-22T00:33:38;21.80;;;12.77;;
71106;SDS011;58763;47.982;11.516;2024-03-22T00:36:04;20.55;;;12.48;;
71106;SDS011;58763;47.982;11.516;2024-03-22T00:38:29;20.45;;;12.95;;
71106;SDS011;58763;47.982;11.516;2024-03-22T00:40:55;22.23;;;12.75;;
71106;SDS011;58763;47.982;11.516;2024-03-22T00:43:21;21.77;;;12.60;;
71106;SDS011;58763;47.982;11.516;2024-03-22T00:45:47;22.75;;;12.38;;
71106;SDS011;58763;47.982;11.516;2024-03-22T00:48:13;19.15;;;12.20;;
71106;SDS011;58763;47.982;11.516;2024-03-22T00:50:39;21.23;;;12.93;;
71106;SDS011;58763;47.982;11.516;2024-03-22T00:53:04;21.25;;;13.65;;
71106;SDS011;58763;47.982;11.516;2024-03-22T00:55:31;23.67;;;14.27;;
71106;SDS011;58763;47.982;11.516;2024-03-22T00:57:57;22.08;;;13.85;;
71106;SDS011;58763;47.982;11.516;2024-03-22T01:00:22;20.65;;;12.27;;
71106;SDS011;58763;47.982;11.516;2024-03-22T01:02:49;22.05;;;12.88;;
71106;SDS011;58763;47.982;11.516;2024-03-22T01:05:16;23.25;;;14.73;;
71106;SDS011;58763;47.982;11.516;2024-03-22T01:07:42;21.33;;;13.65;;
71106;SDS011;58763;47.982;11.516;2024-03-22T01:10:08;25.90;;;13.40;;
71106;SDS011;58763;47.982;11.516;2024-03-22T01:12:33;23.25;;;14.20;;
71106;SDS011;58763;47.982;11.516;2024-03-22T01:14:59;25.55;;;14.70;;
71106;SDS011;58763;47.982;11.516;2024-03-22T01:17:24;27.02;;;14.52;;
71106;SDS011;58763;47.982;11.516;2024-03-22T01:19:50;26.05;;;14.93;;
71106;SDS011;58763;47.982;11.516;2024-03-22T01:22:16;23.85;;;13.85;;
71106;SDS011;58763;47.982;11.516;2024-03-22T01:24:43;24.08;;;14.98;;
71106;SDS011;58763;47.982;11.516;2024-03-22T01:27:09;27.85;;;16.23;;
71106;SDS011;58763;47.982;11.516;2024-03-22T01:29:35;26.02;;;15.43;;
71106;SDS011;58763;47.982;11.516;2024-03-22T01:32:01;24.63;;;15.68;;
71106;SDS011;58763;47.982;11.516;2024-03-22T01:34:27;22.55;;;14.23;;
71106;SDS011;58763;47.982;11.516;2024-03-22T01:36:53;25.92;;;15.18;;
71106;SDS011;58763;47.982;11.516;2024-03-22T01:39:19;24.55;;;14.82;;
71106;SDS011;58763;47.982;11.516;2024-03-22T01:41:49;24.48;;;14.23;;
71106;SDS011;58763;47.982;11.516;2024-03-22T01:44:18;22.17;;;13.77;;
71106;SDS011;58763;47.982;11.516;2024-03-22T01:46:46;25.20;;;14.88;;
71106;SDS011;58763;47.982;11.516;2024-03-22T01:49:13;24.35;;;14.15;;
71106;SDS011;58763;47.982;11.516;2024-03-22T01:51:41;23.90;;;14.80;;
71106;SDS011;58763;47.982;11.516;2024-03-22T01:54:10;26.33;;;13.90;;
71106;SDS011;58763;47.982;11.516;2024-03-22T01:56:39;23.67;;;13.68;;
71106;SDS011;58763;47.982;11.516;2024-03-22T01:59:05;25.15;;;14.38;;
71106;SDS011;58763;47.982;11.516;2024-03-22T02:01:32;29.38;;;15.63;;
71106;SDS011;58763;47.982;11.516;2024-03-22T02:03:58;25.50;;;15.43;;
71106;SDS011;58763;47.982;11.516;2024-03-22T02:06:23;26.77;;;15.18;;
71106;SDS011;58763;47.982;11.516;2024-03-22T02:08:49;27.88;;;15.60;;
71106;SDS011;58763;47.982;11.516;2024-03-22T02:11:15;28.95;;;15.98;;
71106;SDS011;58763;47.982;11.516;2024-03-22T02:13:41;25.75;;;15.05;;
71106;SDS011;58763;47.982;11.516;2024-03-22T02:16:08;21.77;;;14.10;;
71106;SDS011;58763;47.982;11.516;2024-03-22T02:18:34;24.48;;;13.98;;
71106;SDS011;58763;47.982;11.516;2024-03-22T02:21:00;25.85;;;14.68;;
71106;SDS011;58763;47.982;11.516;2024-03-22T02:23:32;27.45;;;14.48;;
71106;SDS011;58763;47.982;11.516;2024-03-22T02:25:59;25.35;;;14.70;;
71106;SDS011;58763;47.982;11.516;2024-03-22T02:28:25;24.52;;;14.73;;
71106;SDS011;58763;47.982;11.516;2024-03-22T02:30:51;25.10;;;14.05;;
71106;SDS011;58763;47.982;11.516;2024-03-22T02:33:17;25.55;;;14.73;;
71106;SDS011;58763;47.982;11.516;2024-03-22T02:35:42;27.23;;;13.65;;
71106;SDS011;58763;47.982;11.516;2024-03-22T02:38:08;21.98;;;13.43;;
71106;SDS011;58763;47.982;11.516;2024-03-22T02:40:34;23.20;;;12.88;;
71106;SDS011;58763;47.982;11.516;2024-03-22T02:43:00;22.00;;;13.80;;
71106;SDS011;58763;47.982;11.516;2024-03-22T02:45:25;24.42;;;12.70;;
71106;SDS011;58763;47.982;11.516;2024-03-22T02:47:51;22.45;;;12.43;;
71106;SDS011;58763;47.982;11.516;2024-03-22T02:50:17;23.92;;;12.80;;
71106;SDS011;58763;47.982;11.516;2024-03-22T02:52:42;22.92;;;13.05;;
71106;SDS011;58763;47.982;11.516;2024-03-22T02:55:08;24.63;;;13.88;;
71106;SDS011;58763;47.982;11.516;2024-03-22T02:57:33;21.60;;;12.88;;
71106;SDS011;58763;47.982;11.516;2024-03-22T03:00:02;22.10;;;12.40;;
71106;SDS011;58763;47.982;11.516;2024-03-22T03:02:28;24.13;;;13.60;;
71106;SDS011;58763;47.982;11.516;2024-03-22T03:04:54;24.42;;;13.40;;
71106;SDS011;58763;47.982;11.516;2024-03-22T03:07:20;21.33;;;12.98;;
71106;SDS011;58763;47.982;11.516;2024-03-22T03:09:45;23.48;;;13.43;;
71106;SDS011;58763;47.982;11.516;2024-03-22T03:12:11;22.42;;;13.10;;
71106;SDS011;58763;47.982;11.516;2024-03-22T03:14:37;22.00;;;12.85;;
71106;SDS011;58763;47.982;11.516;2024-03-22T03:17:02;24.15;;;13.32;;
71106;SDS011;58763;47.982;11.516;2024-03-22T03:19:29;22.13;;;13.25;;
71106;SDS011;58763;47.982;11.516;2024-03-22T03:21:54;23.92;;;13.73;;
71106;SDS011;58763;47.982;11.516;2024-03-22T03:24:20;26.10;;;13.88;;
71106;SDS011;58763;47.982;11.516;2024-03-22T03:26:46;26.65;;;14.15;;
71106;SDS011;58763;47.982;11.516;2024-03-22T03:29:11;27.48;;;14.05;;
71106;SDS011;58763;47.982;11.516;2024-03-22T03:31:36;21.55;;;12.60;;
71106;SDS011;58763;47.982;11.516;2024-03-22T03:34:02;24.05;;;13.38;;
71106;SDS011;58763;47.982;11.516;2024-03-22T03:36:28;22.52;;;13.05;;
71106;SDS011;58763;47.982;11.516;2024-03-22T03:38:53;24.45;;;13.75;;
71106;SDS011;58763;47.982;11.516;2024-03-22T03:41:19;26.75;;;13.18;;
71106;SDS011;58763;47.982;11.516;2024-03-22T03:43:44;26.10;;;14.50;;
71106;SDS011;58763;47.982;11.516;2024-03-22T03:46:10;27.42;;;13.38;;
71106;SDS011;58763;47.982;11.516;2024-03-22T03:48:35;23.20;;;12.77;;
71106;SDS011;58763;47.982;11.516;2024-03-22T03:51:01;23.70;;;12.98;;
71106;SDS011;58763;47.982;11.516;2024-03-22T03:53:31;23.30;;;13.00;;
71106;SDS011;58763;47.982;11.516;2024-03-22T03:55:57;22.58;;;12.88;;
71106;SDS011;58763;47.982;11.516;2024-03-22T03:58:22;22.55;;;12.77;;
71106;SDS011;58763;47.982;11.516;2024-03-22T04:00:48;24.52;;;12.77;;
71106;SDS011;58763;47.982;11.516;2024-03-22T04:03:13;20.75;;;12.63;;
71106;SDS011;58763;47.982;11.516;2024-03-22T04:05:39;20.98;;;12.20;;
71106;SDS011;58763;47.982;11.516;2024-03-22T04:08:05;23.60;;;12.80;;
71106;SDS011;58763;47.982;11.516;2024-03-22T04:10:30;21.88;;;12.15;;
71106;SDS011;58763;47.982;11.516;2024-03-22T04:12:57;21.58;;;12.70;;
71106;SDS011;58763;47.982;11.516;2024-03-22T04:15:23;21.58;;;12.05;;
71106;SDS011;58763;47.982;11.516;2024-03-22T04:17:49;20.00;;;11.85;;
71106;SDS011;58763;47.982;11.516;2024-03-22T04:20:15;25.23;;;13.52;;
71106;SDS011;58763;47.982;11.516;2024-03-22T04:22:40;21.75;;;12.23;;
71106;SDS011;58763;47.982;11.516;2024-03-22T04:25:06;22.20;;;13.02;;
71106;SDS011;58763;47.982;11.516;2024-03-22T04:27:36;23.88;;;12.98;;
71106;SDS011;58763;47.982;11.516;2024-03-22T04:30:02;23.70;;;13.40;;
71106;SDS011;58763;47.982;11.516;2024-03-22T04:32:28;21.52;;;12.25;;
71106;SDS011;58763;47.982;11.516;2024-03-22T04:34:53;19.10;;;11.88;;
71106;SDS011;58763;47.982;11.516;2024-03-22T04:37:20;19.88;;;11.43;;
71106;SDS011;58763;47.982;11.516;2024-03-22T04:39:46;21.13;;;11.77;;
71106;SDS011;58763;47.982;11.516;2024-03-22T04:42:11;19.73;;;11.05;;
71106;SDS011;58763;47.982;11.516;2024-03-22T04:44:37;23.13;;;11.48;;
71106;SDS011;58763;47.982;11.516;2024-03-22T04:47:02;20.88;;;11.77;;
71106;SDS011;58763;47.982;11.516;2024-03-22T04:49:29;19.45;;;11.00;;
71106;SDS011;58763;47.982;11.516;2024-03-22T04:51:55;20.45;;;11.30;;
71106;SDS011;58763;47.982;11.516;2024-03-22T04:54:20;22.25;;;11.75;;
71106;SDS011;58763;47.982;11.516;2024-03-22T04:56:46;21.83;;;12.20;;
71106;SDS011;58763;47.982;11.516;2024-03-22T04:59:11;23.80;;;11.45;;
71106;SDS011;58763;47.982;11.516;2024-03-22T05:01:37;20.60;;;11.48;;
71106;SDS011;58763;47.982;11.516;2024-03-22T05:04:02;20.80;;;12.45;;
71106;SDS011;58763;47.982;11.516;2024-03-22T05:06:28;20.05;;;11.43;;
71106;SDS011;58763;47.982;11.516;2024-03-22T05:08:54;18.33;;;11.02;;
71106;SDS011;58763;47.982;11.516;2024-03-22T05:11:19;17.15;;;10.70;;
71106;SDS011;58763;47.982;11.516;2024-03-22T05:13:45;18.90;;;10.98;;
71106;SDS011;58763;47.982;11.516;2024-03-22T05:16:11;19.50;;;11.07;;
71106;SDS011;58763;47.982;11.516;2024-03-22T05:18:37;18.25;;;10.88;;
71106;SDS011;58763;47.982;11.516;2024-03-22T05:21:03;19.40;;;10.80;;
71106;SDS011;58763;47.982;11.516;2024-03-22T05:23:29;18.85;;;10.52;;
71106;SDS011;58763;47.982;11.516;2024-03-22T05:25:55;19.88;;;10.95;;
71106;SDS011;58763;47.982;11.516;2024-03-22T05:28:20;20.00;;;10.70;;
71106;SDS011;58763;47.982;11.516;2024-03-22T05:30:46;17.55;;;10.68;;
71106;SDS011;58763;47.982;11.516;2024-03-22T05:33:12;18.33;;;11.13;;
71106;SDS011;58763;47.982;11.516;2024-03-22T05:35:38;22.77;;;11.73;;
71106;SDS011;58763;47.982;11.516;2024-03-22T05:38:03;18.75;;;11.82;;
71106;SDS011;58763;47.982;11.516;2024-03-22T05:40:29;18.05;;;10.60;;
71106;SDS011;58763;47.982;11.516;2024-03-22T05:42:54;17.23;;;10.35;;
71106;SDS011;58763;47.982;11.516;2024-03-22T05:45:20;17.77;;;10.10;;
71106;SDS011;58763;47.982;11.516;2024-03-22T05:47:45;17.15;;;9.38;;
71106;SDS011;58763;47.982;11.516;2024-03-22T05:50:12;18.75;;;10.27;;
71106;SDS011;58763;47.982;11.516;2024-03-22T05:52:37;15.82;;;9.25;;
71106;SDS011;58763;47.982;11.516;2024-03-22T05:55:03;17.35;;;10.13;;
71106;SDS011;58763;47.982;11.516;2024-03-22T05:57:29;16.23;;;9.88;;
71106;SDS011;58763;47.982;11.516;2024-03-22T05:59:54;16.15;;;9.80;;
71106;SDS011;58763;47.982;11.516;2024-03-22T06:02:20;19.77;;;10.75;;
71106;SDS011;58763;47.982;11.516;2024-03-22T06:04:45;19.20;;;10.68;;
71106;SDS011;58763;47.982;11.516;2024-03-22T06:07:12;16.13;;;9.68;;
71106;SDS011;58763;47.982;11.516;2024-03-22T06:09:39;18.58;;;10.07;;
71106;SDS011;58763;47.982;11.516;2024-03-22T06:12:20;18.92;;;10.20;;
71106;SDS011;58763;47.982;11.516;2024-03-22T06:14:47;17.88;;;10.32;;
71106;SDS011;58763;47.982;11.516;2024-03-22T06:17:13;15.85;;;9.60;;
71106;SDS011;58763;47.982;11.516;2024-03-22T06:19:40;17.10;;;10.30;;
71106;SDS011;58763;47.982;11.516;2024-03-22T06:22:06;16.50;;;9.77;;
71106;SDS011;58763;47.982;11.516;2024-03-22T06:24:31;18.08;;;10.32;;
71106;SDS011;58763;47.982;11.516;2024-03-22T06:26:57;18.35;;;9.98;;
71106;SDS011;58763;47.982;11.516;2024-03-22T06:29:23;17.10;;;10.15;;
71106;SDS011;58763;47.982;11.516;2024-03-22T06:31:49;17.48;;;10.95;;
71106;SDS011;58763;47.982;11.516;2024-03-22T06:34:15;15.93;;;9.60;;
71106;SDS011;58763;47.982;11.516;2024-03-22T06:36:41;19.25;;;10.20;;
71106;SDS011;58763;47.982;11.516;2024-03-22T06:39:07;16.17;;;10.13;;
71106;SDS011;58763;47.982;11.516;2024-03-22T06:41:34;16.63;;;10.52;;
71106;SDS011;58763;47.982;11.516;2024-03-22T06:44:00;20.30;;;10.00;;
71106;SDS011;58763;47.982;11.516;2024-03-22T06:46:26;15.73;;;9.88;;
71106;SDS011;58763;47.982;11.516;2024-03-22T06:48:51;15.23;;;9.48;;
71106;SDS011;58763;47.982;11.516;2024-03-22T06:51:17;17.52;;;9.88;;
71106;SDS011;58763;47.982;11.516;2024-03-22T06:53:43;19.60;;;10.68;;
71106;SDS011;58763;47.982;11.516;2024-03-22T06:56:10;15.80;;;9.52;;
71106;SDS011;58763;47.982;11.516;2024-03-22T06:58:38;16.33;;;10.32;;
71106;SDS011;58763;47.982;11.516;2024-03-22T07:01:04;15.10;;;9.40;;
71106;SDS011;58763;47.982;11.516;2024-03-22T07:03:30;18.15;;;10.15;;
71106;SDS011;58763;47.982;11.516;2024-03-22T07:05:55;16.60;;;9.85;;
71106;SDS011;58763;47.982;11.516;2024-03-22T07:08:23;16.35;;;10.05;;
71106;SDS011;58763;47.982;11.516;2024-03-22T07:10:50;15.95;;;9.85;;
71106;SDS011;58763;47.982;11.516;2024-03-22T07:13:16;15.68;;;10.15;;
71106;SDS011;58763;47.982;11.516;2024-03-22T07:15:43;19.55;;;10.50;;
71106;SDS011;58763;47.982;11.516;2024-03-22T07:18:10;16.55;;;9.85;;
71106;SDS011;58763;47.982;11.516;2024-03-22T07:20:37;17.52;;;9.43;;
71106;SDS011;58763;47.982;11.516;2024-03-22T07:23:03;18.95;;;10.15;;
71106;SDS011;58763;47.982;11.516;2024-03-22T07:25:29;17.35;;;10.20;;
71106;SDS011;58763;47.982;11.516;2024-03-22T07:27:56;15.45;;;10.05;;
71106;SDS011;58763;47.982;11.516;2024-03-22T07:30:22;13.48;;;8.60;;
71106;SDS011;58763;47.982;11.516;2024-03-22T07:32:47;14.00;;;9.20;;
71106;SDS011;58763;47.982;11.516;2024-03-22T07:35:13;16.48;;;9.52;;
71106;SDS011;58763;47.982;11.516;2024-03-22T07:37:39;14.88;;;9.65;;
71106;SDS011;58763;47.982;11.516;2024-03-22T07:40:05;17.40;;;9.68;;
71106;SDS011;58763;47.982;11.516;2024-03-22T07:42:31;15.15;;;9.63;;
71106;SDS011;58763;47.982;11.516;2024-03-22T07:44:57;16.42;;;9.73;;
71106;SDS011;58763;47.982;11.516;2024-03-22T07:47:22;14.63;;;8.63;;
71106;SDS011;58763;47.982;11.516;2024-03-22T07:49:48;14.02;;;8.75;;
71106;SDS011;58763;47.982;11.516;2024-03-22T07:52:14;13.25;;;8.95;;
71106;SDS011;58763;47.982;11.516;2024-03-22T07:54:39;13.48;;;8.80;;
71106;SDS011;58763;47.982;11.516;2024-03-22T07:57:05;12.43;;;8.10;;
71106;SDS011;58763;47.982;11.516;2024-03-22T07:59:30;13.13;;;8.23;;
71106;SDS011;58763;47.982;11.516;2024-03-22T08:01:57;13.45;;;8.75;;
71106;SDS011;58763;47.982;11.516;2024-03-22T08:04:23;12.90;;;8.65;;
71106;SDS011;58763;47.982;11.516;2024-03-22T08:06:52;13.68;;;8.60;;
71106;SDS011;58763;47.982;11.516;2024-03-22T08:09:17;11.18;;;7.70;;
71106;SDS011;58763;47.982;11.516;2024-03-22T08:11:44;14.38;;;7.60;;
71106;SDS011;58763;47.982;11.516;2024-03-22T08:14:09;12.27;;;7.32;;
71106;SDS011;58763;47.982;11.516;2024-03-22T08:16:35;11.52;;;7.55;;
71106;SDS011;58763;47.982;11.516;2024-03-22T08:19:01;13.30;;;7.85;;
71106;SDS011;58763;47.982;11.516;2024-03-22T08:21:27;10.50;;;7.10;;
71106;SDS011;58763;47.982;11.516;2024-03-22T08:23:54;13.43;;;6.70;;
71106;SDS011;58763;47.982;11.516;2024-03-22T08:26:20;10.77;;;7.05;;
71106;SDS011;58763;47.982;11.516;2024-03-22T08:28:45;10.43;;;7.00;;
71106;SDS011;58763;47.982;11.516;2024-03-22T08:31:12;9.88;;;6.78;;
71106;SDS011;58763;47.982;11.516;2024-03-22T08:33:38;10.65;;;6.75;;
71106;SDS011;58763;47.982;11.516;2024-03-22T08:36:04;10.80;;;7.10;;
71106;SDS011;58763;47.982;11.516;2024-03-22T08:38:30;11.48;;;6.65;;
71106;SDS011;58763;47.982;11.516;2024-03-22T08:40:55;10.40;;;6.55;;
71106;SDS011;58763;47.982;11.516;2024-03-22T08:43:21;9.25;;;6.20;;
71106;SDS011;58763;47.982;11.516;2024-03-22T08:45:48;9.95;;;6.60;;
71106;SDS011;58763;47.982;11.516;2024-03-22T08:48:13;9.85;;;6.32;;
71106;SDS011;58763;47.982;11.516;2024-03-22T08:50:42;10.52;;;6.43;;
71106;SDS011;58763;47.982;11.516;2024-03-22T08:53:08;8.75;;;5.57;;
71106;SDS011;58763;47.982;11.516;2024-03-22T08:55:33;8.80;;;5.90;;
71106;SDS011;58763;47.982;11.516;2024-03-22T08:57:59;8.75;;;5.38;;
71106;SDS011;58763;47.982;11.516;2024-03-22T09:00:25;8.90;;;5.22;;
71106;SDS011;58763;47.982;11.516;2024-03-22T09:02:52;9.48;;;5.93;;
71106;SDS011;58763;47.982;11.516;2024-03-22T09:05:17;9.10;;;5.50;;
71106;SDS011;58763;47.982;11.516;2024-03-22T09:07:43;9.73;;;5.75;;
71106;SDS011;58763;47.982;11.516;2024-03-22T09:10:10;8.55;;;5.43;;
71106;SDS011;58763;47.982;11.516;2024-03-22T09:12:37;10.43;;;5.72;;
71106;SDS011;58763;47.982;11.516;2024-03-22T09:15:02;9.75;;;5.78;;
71106;SDS011;58763;47.982;11.516;2024-03-22T09:17:28;8.48;;;5.45;;
71106;SDS011;58763;47.982;11.516;2024-03-22T09:19:55;9.35;;;5.90;;
71106;SDS011;58763;47.982;11.516;2024-03-22T09:22:21;8.52;;;5.55;;
71106;SDS011;58763;47.982;11.516;2024-03-22T09:24:46;8.63;;;5.72;;
71106;SDS011;58763;47.982;11.516;2024-03-22T09:27:12;8.50;;;5.18;;
71106;SDS011;58763;47.982;11.516;2024-03-22T09:29:37;9.68;;;5.03;;
71106;SDS011;58763;47.982;11.516;2024-03-22T09:32:04;9.35;;;5.22;;
71106;SDS011;58763;47.982;11.516;2024-03-22T09:34:30;7.47;;;4.50;;
71106;SDS011;58763;47.982;11.516;2024-03-22T09:36:56;6.40;;;4.47;;
71106;SDS011;58763;47.982;11.516;2024-03-22T09:39:23;7.65;;;4.40;;
71106;SDS011;58763;47.982;11.516;2024-03-22T09:41:49;8.95;;;4.13;;
71106;SDS011;58763;47.982;11.516;2024-03-22T09:44:17;6.25;;;3.72;;
71106;SDS011;58763;47.982;11.516;2024-03-22T09:46:46;9.63;;;4.22;;
71106;SDS011;58763;47.982;11.516;2024-03-22T09:49:12;8.10;;;4.28;;
71106;SDS011;58763;47.982;11.516;2024-03-22T09:51:39;7.57;;;4.22;;
71106;SDS011;58763;47.982;11.516;2024-03-22T09:54:05;7.70;;;3.72;;
71106;SDS011;58763;47.982;11.516;2024-03-22T09:56:31;7.15;;;3.65;;
71106;SDS011;58763;47.982;11.516;2024-03-22T09:58:59;5.63;;;3.65;;
71106;SDS011;58763;47.982;11.516;2024-03-22T10:01:25;7.57;;;3.75;;
71106;SDS011;58763;47.982;11.516;2024-03-22T10:03:51;5.70;;;3.70;;
71106;SDS011;58763;47.982;11.516;2024-03-22T10:06:18;6.25;;;3.97;;
71106;SDS011;58763;47.982;11.516;2024-03-22T10:08:44;7.65;;;3.40;;
71106;SDS011;58763;47.982;11.516;2024-03-22T10:11:10;7.18;;;3.33;;
71106;SDS011;58763;47.982;11.516;2024-03-22T10:13:36;4.55;;;3.05;;
71106;SDS011;58763;47.982;11.516;2024-03-22T10:16:02;6.45;;;3.45;;
71106;SDS011;58763;47.982;11.516;2024-03-22T10:18:28;6.18;;;3.30;;
71106;SDS011;58763;47.982;11.516;2024-03-22T10:21:03;5.45;;;2.83;;
71106;SDS011;58763;47.982;11.516;2024-03-22T10:23:30;6.40;;;2.65;;
71106;SDS011;58763;47.982;11.516;2024-03-22T10:25:56;5.00;;;2.63;;
71106;SDS011;58763;47.982;11.516;2024-03-22T10:28:24;4.32;;;2.42;;
71106;SDS011;58763;47.982;11.516;2024-03-22T10:30:50;5.70;;;2.50;;
71106;SDS011;58763;47.982;11.516;2024-03-22T10:33:20;4.53;;;2.40;;
71106;SDS011;58763;47.982;11.516;2024-03-22T10:35:52;4.97;;;2.42;;
71106;SDS011;58763;47.982;11.516;2024-03-22T10:38:19;5.20;;;3.05;;
71106;SDS011;58763;47.982;11.516;2024-03-22T10:40:46;5.35;;;3.00;;
71106;SDS011;58763;47.982;11.516;2024-03-22T10:43:16;3.65;;;2.13;;
71106;SDS011;58763;47.982;11.516;2024-03-22T10:45:42;5.78;;;2.17;;
71106;SDS011;58763;47.982;11.516;2024-03-22T10:48:12;6.65;;;2.45;;
71106;SDS011;58763;47.982;11.516;2024-03-22T10:50:42;5.30;;;2.47;;
71106;SDS011;58763;47.982;11.516;2024-03-22T10:53:11;4.20;;;2.20;;
71106;SDS011;58763;47.982;11.516;2024-03-22T10:55:44;5.85;;;2.60;;
71106;SDS011;58763;47.982;11.516;2024-03-22T10:58:18;5.57;;;2.13;;
71106;SDS011;58763;47.982;11.516;2024-03-22T11:00:50;5.38;;;2.38;;
71106;SDS011;58763;47.982;11.516;2024-03-22T11:03:19;5.20;;;2.50;;
71106;SDS011;58763;47.982;11.516;2024-03-22T11:05:46;5.82;;;2.50;;
71106;SDS011;58763;47.982;11.516;2024-03-22T11:08:13;3.75;;;2.20;;
71106;SDS011;58763;47.982;11.516;2024-03-22T11:10:49;4.50;;;2.30;;
71106;SDS011;58763;47.982;11.516;2024-03-22T11:13:16;4.00;;;2.03;;
71106;SDS011;58763;47.982;11.516;2024-03-22T11:15:42;3.42;;;2.10;;
71106;SDS011;58763;47.982;11.516;2024-03-22T11:18:09;3.78;;;1.90;;
71106;SDS011;58763;47.982;11.516;2024-03-22T11:20:37;5.05;;;2.90;;
71106;SDS011;58763;47.982;11.516;2024-03-22T11:23:04;3.83;;;2.00;;
71106;SDS011;58763;47.982;11.516;2024-03-22T11:25:33;5.55;;;2.47;;
71106;SDS011;58763;47.982;11.516;2024-03-22T11:28:00;4.68;;;2.50;;
71106;SDS011;58763;47.982;11.516;2024-03-22T11:30:29;4.03;;;2.28;;
71106;SDS011;58763;47.982;11.516;2024-03-22T11:35:23;5.20;;;2.10;;
71106;SDS011;58763;47.982;11.516;2024-03-22T11:37:49;3.83;;;2.22;;
71106;SDS011;58763;47.982;11.516;2024-03-22T11:40:16;4.72;;;2.40;;
71106;SDS011;58763;47.982;11.516;2024-03-22T11:42:44;4.18;;;2.10;;
71106;SDS011;58763;47.982;11.516;2024-03-22T11:47:40;5.43;;;2.63;;
71106;SDS011;58763;47.982;11.516;2024-03-22T11:50:06;4.47;;;2.42;;
71106;SDS011;58763;47.982;11.516;2024-03-22T11:52:32;4.38;;;2.60;;
71106;SDS011;58763;47.982;11.516;2024-03-22T11:54:57;4.60;;;2.30;;
71106;SDS011;58763;47.982;11.516;2024-03-22T11:57:24;4.68;;;2.20;;
71106;SDS011;58763;47.982;11.516;2024-03-22T11:59:50;4.80;;;2.45;;
71106;SDS011;58763;47.982;11.516;2024-03-22T12:02:16;4.88;;;2.50;;
71106;SDS011;58763;47.982;11.516;2024-03-22T12:04:43;4.18;;;2.22;;
71106;SDS011;58763;47.982;11.516;2024-03-22T12:07:11;6.15;;;2.40;;
71106;SDS011;58763;47.982;11.516;2024-03-22T12:09:39;4.72;;;2.33;;
71106;SDS011;58763;47.982;11.516;2024-03-22T12:12:06;4.00;;;2.22;;
71106;SDS011;58763;47.982;11.516;2024-03-22T12:14:34;5.60;;;2.40;;
71106;SDS011;58763;47.982;11.516;2024-03-22T12:17:01;4.88;;;2.17;;
71106;SDS011;58763;47.982;11.516;2024-03-22T12:19:28;4.43;;;2.25;;
71106;SDS011;58763;47.982;11.516;2024-03-22T12:21:54;4.82;;;2.40;;
71106;SDS011;58763;47.982;11.516;2024-03-22T12:24:19;3.80;;;2.10;;
71106;SDS011;58763;47.982;11.516;2024-03-22T12:26:45;5.18;;;2.38;;
71106;SDS011;58763;47.982;11.516;2024-03-22T12:29:12;4.20;;;2.40;;
71106;SDS011;58763;47.982;11.516;2024-03-22T12:31:38;4.35;;;2.50;;
71106;SDS011;58763;47.982;11.516;2024-03-22T12:34:04;3.53;;;1.95;;
71106;SDS011;58763;47.982;11.516;2024-03-22T12:36:29;3.40;;;2.00;;
71106;SDS011;58763;47.982;11.516;2024-03-22T12:38:55;4.22;;;1.75;;
71106;SDS011;58763;47.982;11.516;2024-03-22T12:41:21;5.25;;;2.22;;
71106;SDS011;58763;47.982;11.516;2024-03-22T12:43:47;4.97;;;2.17;;
71106;SDS011;58763;47.982;11.516;2024-03-22T12:46:12;6.40;;;2.05;;
71106;SDS011;58763;47.982;11.516;2024-03-22T12:48:38;4.07;;;2.38;;
71106;SDS011;58763;47.982;11.516;2024-03-22T12:51:03;5.05;;;2.20;;
71106;SDS011;58763;47.982;11.516;2024-03-22T12:53:29;4.20;;;2.13;;
71106;SDS011;58763;47.982;11.516;2024-03-22T12:55:54;5.07;;;2.22;;
71106;SDS011;58763;47.982;11.516;2024-03-22T12:58:20;4.97;;;1.95;;
71106;SDS011;58763;47.982;11.516;2024-03-22T13:00:46;4.90;;;2.10;;
71106;SDS011;58763;47.982;11.516;2024-03-22T13:03:11;4.40;;;2.03;;
71106;SDS011;58763;47.982;11.516;2024-03-22T13:05:38;4.00;;;2.10;;
71106;SDS011;58763;47.982;11.516;2024-03-22T13:08:05;5.55;;;2.05;;
71106;SDS011;58763;47.982;11.516;2024-03-22T13:10:31;5.53;;;2.30;;
71106;SDS011;58763;47.982;11.516;2024-03-22T13:12:57;4.75;;;2.08;;
71106;SDS011;58763;47.982;11.516;2024-03-22T13:15:23;3.40;;;1.70;;
71106;SDS011;58763;47.982;11.516;2024-03-22T13:17:48;3.78;;;2.05;;
71106;SDS011;58763;47.982;11.516;2024-03-22T13:20:14;4.47;;;1.92;;
71106;SDS011;58763;47.982;11.516;2024-03-22T13:22:40;5.00;;;1.88;;
71106;SDS011;58763;47.982;11.516;2024-03-22T13:25:06;6.35;;;1.90;;
71106;SDS011;58763;47.982;11.516;2024-03-22T13:27:35;4.10;;;1.92;;
71106;SDS011;58763;47.982;11.516;2024-03-22T13:30:01;4.43;;;2.10;;
71106;SDS011;58763;47.982;11.516;2024-03-22T13:32:28;3.97;;;2.00;;
71106;SDS011;58763;47.982;11.516;2024-03-22T13:34:53;5.07;;;1.92;;
71106;SDS011;58763;47.982;11.516;2024-03-22T13:37:20;3.90;;;2.05;;
71106;SDS011;58763;47.982;11.516;2024-03-22T13:39:49;4.72;;;2.15;;
71106;SDS011;58763;47.982;11.516;2024-03-22T13:42:15;5.80;;;1.95;;
71106;SDS011;58763;47.982;11.516;2024-03-22T13:44:41;3.42;;;1.65;;
71106;SDS011;58763;47.982;11.516;2024-03-22T13:47:07;5.35;;;1.88;;
71106;SDS011;58763;47.982;11.516;2024-03-22T13:49:33;7.45;;;2.17;;
71106;SDS011;58763;47.982;11.516;2024-03-22T13:51:59;5.13;;;2.10;;
71106;SDS011;58763;47.982;11.516;2024-03-22T13:54:24;4.65;;;1.98;;
71106;SDS011;58763;47.982;11.516;2024-03-22T13:56:50;5.15;;;1.73;;
71106;SDS011;58763;47.982;11.516;2024-03-22T13:59:16;5.88;;;1.77;;
71106;SDS011;58763;47.982;11.516;2024-03-22T14:01:42;5.30;;;2.15;;
71106;SDS011;58763;47.982;11.516;2024-03-22T14:04:11;4.72;;;1.90;;
71106;SDS011;58763;47.982;11.516;2024-03-22T14:06:37;3.42;;;1.70;;
71106;SDS011;58763;47.982;11.516;2024-03-22T14:09:03;3.53;;;1.70;;
71106;SDS011;58763;47.982;11.516;2024-03-22T14:11:30;2.75;;;1.45;;
71106;SDS011;58763;47.982;11.516;2024-03-22T14:13:59;4.35;;;1.65;;
71106;SDS011;58763;47.982;11.516;2024-03-22T14:16:25;4.00;;;1.60;;
71106;SDS011;58763;47.982;11.516;2024-03-22T14:18:51;3.33;;;1.60;;
71106;SDS011;58763;47.982;11.516;2024-03-22T14:21:18;3.10;;;1.60;;